createdAt,value
2018-02-23T00:00:57.636Z,1018.31
2018-02-23T00:01:57.593Z,1018.27
2018-02-23T00:02:57.567Z,1018.30
2018-02-23T00:03:57.536Z,1018.23
2018-02-23T00:04:57.507Z,1018.23
2018-02-23T00:05:57.492Z,1018.26
2018-02-23T00:06:57.452Z,1018.25
2018-02-23T00:07:57.435Z,1018.22
2018-02-23T00:08:57.404Z,1018.23
2018-02-23T00:09:57.366Z,1018.24
2018-02-23T00:10:57.347Z,1018.23
2018-02-23T00:11:57.314Z,1018.21
2018-02-23T00:12:57.280Z,1018.27
2018-02-23T00:13:57.260Z,1018.28
2018-02-23T00:14:57.268Z,1018.21
2018-02-23T00:15:57.207Z,1018.26
2018-02-23T00:16:57.175Z,1018.21
2018-02-23T00:17:57.147Z,1018.22
2018-02-23T00:18:57.109Z,1018.26
2018-02-23T00:19:57.082Z,1018.24
2018-02-23T00:20:57.056Z,1018.27
2018-02-23T00:21:57.033Z,1018.19
2018-02-23T00:22:57.005Z,1018.20
2018-02-23T00:23:56.967Z,1018.20
2018-02-23T00:24:56.948Z,1018.17
2018-02-23T00:25:56.925Z,1018.17
2018-02-23T00:26:56.893Z,1018.15
2018-02-23T00:27:56.852Z,1018.17
2018-02-23T00:28:56.825Z,1018.18
2018-02-23T00:29:56.798Z,1018.14
2018-02-23T00:30:56.765Z,1018.13
2018-02-23T00:31:56.736Z,1018.15
2018-02-23T00:32:56.720Z,1018.10
2018-02-23T00:33:56.692Z,1018.07
2018-02-23T00:34:56.663Z,1018.10
2018-02-23T00:35:56.634Z,1018.11
2018-02-23T00:36:56.605Z,1018.14
2018-02-23T00:37:56.579Z,1018.11
2018-02-23T00:38:56.554Z,1018.15
2018-02-23T00:39:56.513Z,1018.17
2018-02-23T00:40:56.490Z,1018.15
2018-02-23T00:41:56.451Z,1018.16
2018-02-23T00:42:56.426Z,1018.19
2018-02-23T00:43:56.405Z,1018.17
2018-02-23T00:44:56.376Z,1018.14
2018-02-23T00:45:56.372Z,1018.15
2018-02-23T00:46:56.318Z,1018.16
2018-02-23T00:47:56.289Z,1018.16
2018-02-23T00:48:56.263Z,1018.18
2018-02-23T00:49:56.233Z,1018.18
2018-02-23T00:50:56.204Z,1018.15
2018-02-23T00:51:56.186Z,1018.20
2018-02-23T00:52:56.136Z,1018.16
2018-02-23T00:53:56.117Z,1018.18
2018-02-23T00:54:56.077Z,1018.23
2018-02-23T00:55:56.050Z,1018.22
2018-02-23T00:56:56.023Z,1018.23
2018-02-23T00:57:55.990Z,1018.25
2018-02-23T00:58:55.964Z,1018.22
2018-02-23T00:59:55.933Z,1018.21
2018-02-23T01:00:55.917Z,1018.25
2018-02-23T01:01:55.888Z,1018.23
2018-02-23T01:02:55.860Z,1018.26
2018-02-23T01:03:55.835Z,1018.20
2018-02-23T01:04:55.794Z,1018.26
2018-02-23T01:05:55.774Z,1018.24
2018-02-23T01:06:55.746Z,1018.26
2018-02-23T01:07:55.718Z,1018.25
2018-02-23T01:08:55.688Z,1018.26
2018-02-23T01:09:55.651Z,1018.24
2018-02-23T01:10:55.618Z,1018.24
2018-02-23T01:11:55.590Z,1018.26
2018-02-23T01:12:55.564Z,1018.27
2018-02-23T01:13:55.535Z,1018.25
2018-02-23T01:14:55.511Z,1018.27
2018-02-23T01:15:55.488Z,1018.31
2018-02-23T01:16:55.462Z,1018.27
2018-02-23T01:17:55.439Z,1018.28
2018-02-23T01:18:55.402Z,1018.24
2018-02-23T01:19:55.365Z,1018.23
2018-02-23T01:20:55.341Z,1018.24
2018-02-23T01:21:55.307Z,1018.25
2018-02-23T01:22:55.279Z,1018.18
2018-02-23T01:23:55.251Z,1018.23
2018-02-23T01:24:55.223Z,1018.22
2018-02-23T01:25:55.192Z,1018.24
2018-02-23T01:26:55.176Z,1018.24
2018-02-23T01:27:55.135Z,1018.20
2018-02-23T01:28:55.111Z,1018.18
2018-02-23T01:29:55.078Z,1018.15
2018-02-23T01:30:55.050Z,1018.17
2018-02-23T01:31:55.050Z,1018.14
2018-02-23T01:32:55.020Z,1018.13
2018-02-23T01:33:54.974Z,1018.14
2018-02-23T01:34:54.948Z,1018.09
2018-02-23T01:35:54.907Z,1018.10
2018-02-23T01:36:54.880Z,1018.10
2018-02-23T01:37:54.868Z,1018.07
2018-02-23T01:38:54.822Z,1018.08
2018-02-23T01:39:54.806Z,1018.07
2018-02-23T01:40:54.766Z,1018.09
2018-02-23T01:41:54.738Z,1018.04
2018-02-23T01:42:54.710Z,1018.01
2018-02-23T01:43:54.682Z,1018.02
2018-02-23T01:44:54.655Z,1018.00
2018-02-23T01:45:54.633Z,1018.09
2018-02-23T01:46:54.612Z,1018.06
2018-02-23T01:47:54.565Z,1018.07
2018-02-23T01:48:54.552Z,1018.07
2018-02-23T01:49:54.510Z,1018.04
2018-02-23T01:50:54.482Z,1018.04
2018-02-23T01:51:54.465Z,1018.04
2018-02-23T01:52:54.438Z,1018.05
2018-02-23T01:53:54.398Z,1018.04
2018-02-23T01:54:54.379Z,1018.01
2018-02-23T01:55:54.346Z,1018.01
2018-02-23T01:56:54.312Z,1017.95
2018-02-23T01:57:54.296Z,1018.00
2018-02-23T01:58:54.266Z,1017.98
2018-02-23T01:59:54.226Z,1017.95
2018-02-23T02:00:54.213Z,1017.91
2018-02-23T02:01:54.182Z,1017.95
2018-02-23T02:02:54.154Z,1017.90
2018-02-23T02:03:54.128Z,1017.87
2018-02-23T02:04:54.095Z,1017.88
2018-02-23T02:05:54.122Z,1017.85
2018-02-23T02:06:54.035Z,1017.82
2018-02-23T02:07:54.013Z,1017.79
2018-02-23T02:08:53.973Z,1017.79
2018-02-23T02:09:53.944Z,1017.81
2018-02-23T02:10:53.914Z,1017.80
2018-02-23T02:11:53.897Z,1017.83
2018-02-23T02:12:53.860Z,1017.82
2018-02-23T02:13:53.840Z,1017.78
2018-02-23T02:14:53.813Z,1017.74
2018-02-23T02:15:53.772Z,1017.79
2018-02-23T02:16:53.757Z,1017.80
2018-02-23T02:17:53.715Z,1017.78
2018-02-23T02:18:53.687Z,1017.77
2018-02-23T02:19:53.669Z,1017.80
2018-02-23T02:20:53.644Z,1017.78
2018-02-23T02:21:53.602Z,1017.78
2018-02-23T02:22:53.576Z,1017.81
2018-02-23T02:23:53.546Z,1017.80
2018-02-23T02:24:53.520Z,1017.77
2018-02-23T02:25:53.488Z,1017.68
2018-02-23T02:26:53.471Z,1017.77
2018-02-23T02:27:53.444Z,1017.72
2018-02-23T02:28:53.405Z,1017.74
2018-02-23T02:29:53.386Z,1017.74
2018-02-23T02:30:53.358Z,1017.72
2018-02-23T02:31:53.319Z,1017.72
2018-02-23T02:32:53.295Z,1017.67
2018-02-23T02:33:53.277Z,1017.69
2018-02-23T02:34:53.230Z,1017.73
2018-02-23T02:35:53.200Z,1017.65
2018-02-23T02:36:53.172Z,1017.65
2018-02-23T02:37:53.148Z,1017.66
2018-02-23T02:38:53.116Z,1017.63
2018-02-23T02:39:53.100Z,1017.69
2018-02-23T02:40:53.062Z,1017.67
2018-02-23T02:41:53.031Z,1017.69
2018-02-23T02:42:53.001Z,1017.72
2018-02-23T02:43:52.982Z,1017.72
2018-02-23T02:44:52.943Z,1017.74
2018-02-23T02:45:52.920Z,1017.70
2018-02-23T02:46:52.895Z,1017.69
2018-02-23T02:47:52.862Z,1017.70
2018-02-23T02:48:52.828Z,1017.75
2018-02-23T02:49:52.813Z,1017.78
2018-02-23T02:50:52.778Z,1017.72
2018-02-23T02:51:52.752Z,1017.71
2018-02-23T02:52:52.723Z,1017.73
2018-02-23T02:53:52.690Z,1017.72
2018-02-23T02:54:52.665Z,1017.71
2018-02-23T02:55:52.635Z,1017.76
2018-02-23T02:56:52.609Z,1017.71
2018-02-23T02:57:52.585Z,1017.73
2018-02-23T02:58:52.553Z,1017.74
2018-02-23T02:59:52.523Z,1017.72
2018-02-23T03:00:52.494Z,1017.72
2018-02-23T03:01:52.464Z,1017.70
2018-02-23T03:02:52.439Z,1017.69
2018-02-23T03:03:52.409Z,1017.67
2018-02-23T03:04:52.383Z,1017.74
2018-02-23T03:05:52.351Z,1017.65
2018-02-23T03:06:52.322Z,1017.67
2018-02-23T03:07:52.298Z,1017.60
2018-02-23T03:08:52.265Z,1017.67
2018-02-23T03:09:52.237Z,1017.59
2018-02-23T03:10:52.210Z,1017.58
2018-02-23T03:11:52.181Z,1017.60
2018-02-23T03:12:52.154Z,1017.55
2018-02-23T03:13:52.126Z,1017.53
2018-02-23T03:14:52.097Z,1017.57
2018-02-23T03:15:52.069Z,1017.55
2018-02-23T03:16:52.040Z,1017.58
2018-02-23T03:17:52.014Z,1017.54
2018-02-23T03:18:51.983Z,1017.55
2018-02-23T03:19:51.957Z,1017.54
2018-02-23T03:20:51.931Z,1017.57
2018-02-23T03:21:51.898Z,1017.57
2018-02-23T03:22:51.869Z,1017.60
2018-02-23T03:23:51.843Z,1017.61
2018-02-23T03:24:51.812Z,1017.62
2018-02-23T03:25:51.783Z,1017.62
2018-02-23T03:26:51.809Z,1017.71
2018-02-23T03:27:51.726Z,1017.65
2018-02-23T03:28:51.698Z,1017.67
2018-02-23T03:29:51.671Z,1017.71
2018-02-23T03:30:51.649Z,1017.74
2018-02-23T03:31:51.609Z,1017.66
2018-02-23T03:32:51.581Z,1017.65
2018-02-23T03:33:51.555Z,1017.65
2018-02-23T03:34:51.522Z,1017.67
2018-02-23T03:35:51.497Z,1017.65
2018-02-23T03:36:51.475Z,1017.66
2018-02-23T03:37:51.439Z,1017.65
2018-02-23T03:38:51.411Z,1017.65
2018-02-23T03:39:51.382Z,1017.64
2018-02-23T03:40:51.355Z,1017.67
2018-02-23T03:41:51.322Z,1017.69
2018-02-23T03:42:51.298Z,1017.68
2018-02-23T03:43:51.266Z,1017.65
2018-02-23T03:44:51.236Z,1017.66
2018-02-23T03:45:51.203Z,1017.64
2018-02-23T03:46:51.180Z,1017.65
2018-02-23T03:47:51.158Z,1017.65
2018-02-23T03:48:51.123Z,1017.64
2018-02-23T03:49:51.094Z,1017.65
2018-02-23T03:50:51.102Z,1017.60
2018-02-23T03:51:51.037Z,1017.61
2018-02-23T03:52:51.007Z,1017.61
2018-02-23T03:53:50.978Z,1017.62
2018-02-23T03:54:50.945Z,1017.61
2018-02-23T03:55:50.920Z,1017.58
2018-02-23T03:56:50.893Z,1017.59
2018-02-23T03:57:50.860Z,1017.58
2018-02-23T03:58:50.838Z,1017.61
2018-02-23T03:59:50.803Z,1017.60
2018-02-23T04:00:50.771Z,1017.54
2018-02-23T04:01:50.741Z,1017.56
2018-02-23T04:02:50.721Z,1017.53
2018-02-23T04:03:50.691Z,1017.59
2018-02-23T04:04:50.660Z,1017.57
2018-02-23T04:05:50.629Z,1017.56
2018-02-23T04:06:50.598Z,1017.58
2018-02-23T04:07:50.570Z,1017.55
2018-02-23T04:08:50.584Z,1017.56
2018-02-23T04:09:50.515Z,1017.57
2018-02-23T04:10:50.486Z,1017.61
2018-02-23T04:11:50.460Z,1017.52
2018-02-23T04:12:50.424Z,1017.58
2018-02-23T04:13:50.398Z,1017.56
2018-02-23T04:14:50.364Z,1017.58
2018-02-23T04:15:50.333Z,1017.59
2018-02-23T04:16:50.306Z,1017.62
2018-02-23T04:17:50.279Z,1017.58
2018-02-23T04:18:50.248Z,1017.59
2018-02-23T04:19:50.216Z,1017.61
2018-02-23T04:20:50.187Z,1017.56
2018-02-23T04:21:50.156Z,1017.58
2018-02-23T04:22:50.132Z,1017.62
2018-02-23T04:23:50.102Z,1017.56
2018-02-23T04:24:50.073Z,1017.57
2018-02-23T04:25:50.043Z,1017.60
2018-02-23T04:26:50.012Z,1017.61
2018-02-23T04:27:49.987Z,1017.59
2018-02-23T04:28:49.951Z,1017.57
2018-02-23T04:29:49.919Z,1017.66
2018-02-23T04:30:49.896Z,1017.64
2018-02-23T04:31:49.868Z,1017.63
2018-02-23T04:32:49.835Z,1017.68
2018-02-23T04:33:49.809Z,1017.66
2018-02-23T04:34:49.778Z,1017.62
2018-02-23T04:35:49.747Z,1017.67
2018-02-23T04:36:49.720Z,1017.73
2018-02-23T04:37:49.726Z,1017.68
2018-02-23T04:38:49.654Z,1017.70
2018-02-23T04:39:49.629Z,1017.69
2018-02-23T04:40:49.603Z,1017.75
2018-02-23T04:41:49.573Z,1017.75
2018-02-23T04:42:49.544Z,1017.74
2018-02-23T04:43:49.513Z,1017.77
2018-02-23T04:44:49.486Z,1017.77
2018-02-23T04:45:49.454Z,1017.75
2018-02-23T04:46:49.420Z,1017.72
2018-02-23T04:47:49.398Z,1017.78
2018-02-23T04:48:49.367Z,1017.78
2018-02-23T04:49:49.334Z,1017.78
2018-02-23T04:50:49.305Z,1017.79
2018-02-23T04:51:49.276Z,1017.79
2018-02-23T04:52:49.248Z,1017.80
2018-02-23T04:53:49.216Z,1017.81
2018-02-23T04:54:49.185Z,1017.77
2018-02-23T04:55:49.158Z,1017.77
2018-02-23T04:56:49.129Z,1017.78
2018-02-23T04:57:49.103Z,1017.77
2018-02-23T04:58:49.070Z,1017.72
2018-02-23T04:59:49.036Z,1017.78
2018-02-23T05:00:49.011Z,1017.75
2018-02-23T05:01:48.984Z,1017.76
2018-02-23T05:02:48.951Z,1017.77
2018-02-23T05:03:48.916Z,1017.76
2018-02-23T05:04:48.893Z,1017.79
2018-02-23T05:05:48.866Z,1017.77
2018-02-23T05:06:48.835Z,1017.82
2018-02-23T05:07:48.804Z,1017.75
2018-02-23T05:08:48.779Z,1017.76
2018-02-23T05:09:48.749Z,1017.81
2018-02-23T05:10:48.719Z,1017.81
2018-02-23T05:11:48.685Z,1017.80
2018-02-23T05:12:48.655Z,1017.78
2018-02-23T05:13:48.628Z,1017.78
2018-02-23T05:14:48.598Z,1017.79
2018-02-23T05:15:48.565Z,1017.78
2018-02-23T05:16:48.538Z,1017.81
2018-02-23T05:17:48.508Z,1017.77
2018-02-23T05:18:48.480Z,1017.78
2018-02-23T05:19:48.449Z,1017.78
2018-02-23T05:20:48.418Z,1017.80
2018-02-23T05:21:48.386Z,1017.87
2018-02-23T05:22:48.358Z,1017.84
2018-02-23T05:23:48.328Z,1017.80
2018-02-23T05:24:48.301Z,1017.83
2018-02-23T05:25:48.269Z,1017.81
2018-02-23T05:26:48.239Z,1017.83
2018-02-23T05:27:48.211Z,1017.86
2018-02-23T05:28:48.182Z,1017.82
2018-02-23T05:29:48.180Z,1017.84
2018-02-23T05:30:48.119Z,1017.84
2018-02-23T05:31:48.093Z,1017.79
2018-02-23T05:32:48.061Z,1017.88
2018-02-23T05:33:48.027Z,1017.91
2018-02-23T05:34:48.002Z,1017.90
2018-02-23T05:35:47.973Z,1017.89
2018-02-23T05:36:47.941Z,1017.92
2018-02-23T05:37:47.912Z,1017.94
2018-02-23T05:38:47.884Z,1017.94
2018-02-23T05:39:47.858Z,1017.91
2018-02-23T05:40:47.828Z,1017.91
2018-02-23T05:41:47.789Z,1017.87
2018-02-23T05:42:47.767Z,1017.87
2018-02-23T05:43:47.735Z,1017.87
2018-02-23T05:44:47.707Z,1017.93
2018-02-23T05:45:47.677Z,1017.95
2018-02-23T05:46:47.647Z,1017.90
2018-02-23T05:47:47.614Z,1017.94
2018-02-23T05:48:47.588Z,1017.93
2018-02-23T05:49:47.557Z,1017.94
2018-02-23T05:50:47.530Z,1017.92
2018-02-23T05:51:47.491Z,1017.98
2018-02-23T05:52:47.471Z,1017.94
2018-02-23T05:53:47.443Z,1017.89
2018-02-23T05:54:47.408Z,1017.92
2018-02-23T05:55:47.409Z,1017.93
2018-02-23T05:56:47.352Z,1017.93
2018-02-23T05:57:47.316Z,1017.95
2018-02-23T05:58:47.284Z,1017.93
2018-02-23T05:59:47.260Z,1017.98
2018-02-23T06:00:47.240Z,1017.99
2018-02-23T06:01:47.204Z,1017.98
2018-02-23T06:02:47.213Z,1017.96
2018-02-23T06:03:47.140Z,1017.99
2018-02-23T06:04:47.116Z,1017.99
2018-02-23T06:05:47.083Z,1018.02
2018-02-23T06:06:47.056Z,1018.02
2018-02-23T06:07:47.024Z,1018.02
2018-02-23T06:08:46.995Z,1018.01
2018-02-23T06:09:46.955Z,1018.02
2018-02-23T06:10:46.932Z,1018.02
2018-02-23T06:11:46.903Z,1018.06
2018-02-23T06:12:46.872Z,1018.06
2018-02-23T06:13:46.844Z,1018.07
2018-02-23T06:14:46.820Z,1018.10
2018-02-23T06:15:46.785Z,1018.10
2018-02-23T06:16:46.763Z,1018.15
2018-02-23T06:17:46.725Z,1018.14
2018-02-23T06:18:46.697Z,1018.17
2018-02-23T06:19:46.666Z,1018.13
2018-02-23T06:20:46.638Z,1018.17
2018-02-23T06:21:46.610Z,1018.15
2018-02-23T06:22:46.579Z,1018.18
2018-02-23T06:23:46.543Z,1018.18
2018-02-23T06:24:46.518Z,1018.15
2018-02-23T06:25:46.485Z,1018.19
2018-02-23T06:26:46.455Z,1018.21
2018-02-23T06:27:46.430Z,1018.24
2018-02-23T06:28:46.394Z,1018.16
2018-02-23T06:29:46.366Z,1018.23
2018-02-23T06:30:46.339Z,1018.23
2018-02-23T06:31:46.310Z,1018.23
2018-02-23T06:32:46.280Z,1018.23
2018-02-23T06:33:46.251Z,1018.26
2018-02-23T06:34:46.218Z,1018.24
2018-02-23T06:35:46.193Z,1018.23
2018-02-23T06:36:46.164Z,1018.25
2018-02-23T06:37:46.129Z,1018.28
2018-02-23T06:38:46.100Z,1018.25
2018-02-23T06:39:46.069Z,1018.34
2018-02-23T06:40:46.040Z,1018.34
2018-02-23T06:41:46.010Z,1018.34
2018-02-23T06:42:45.984Z,1018.34
2018-02-23T06:43:45.948Z,1018.35
2018-02-23T06:44:45.922Z,1018.33
2018-02-23T06:45:45.890Z,1018.38
2018-02-23T06:46:45.862Z,1018.39
2018-02-23T06:47:45.832Z,1018.40
2018-02-23T06:48:45.801Z,1018.43
2018-02-23T06:49:45.775Z,1018.41
2018-02-23T06:50:45.743Z,1018.44
2018-02-23T06:51:45.713Z,1018.48
2018-02-23T06:52:45.684Z,1018.45
2018-02-23T06:53:45.654Z,1018.48
2018-02-23T06:54:45.623Z,1018.49
2018-02-23T06:55:45.591Z,1018.47
2018-02-23T06:56:45.567Z,1018.52
2018-02-23T06:57:45.534Z,1018.54
2018-02-23T06:58:45.504Z,1018.54
2018-02-23T06:59:45.473Z,1018.57
2018-02-23T07:00:45.441Z,1018.57
2018-02-23T07:01:45.414Z,1018.55
2018-02-23T07:02:45.386Z,1018.54
2018-02-23T07:03:45.390Z,1018.53
2018-02-23T07:04:45.333Z,1018.56
2018-02-23T07:05:45.295Z,1018.54
2018-02-23T07:06:45.269Z,1018.58
2018-02-23T07:07:45.236Z,1018.60
2018-02-23T07:08:45.208Z,1018.61
2018-02-23T07:09:45.177Z,1018.61
2018-02-23T07:10:45.148Z,1018.56
2018-02-23T07:11:45.122Z,1018.56
2018-02-23T07:12:45.090Z,1018.58
2018-02-23T07:13:45.058Z,1018.56
2018-02-23T07:14:45.023Z,1018.57
2018-02-23T07:15:44.998Z,1018.57
2018-02-23T07:16:44.969Z,1018.63
2018-02-23T07:17:44.937Z,1018.63
2018-02-23T07:18:44.910Z,1018.58
2018-02-23T07:19:44.880Z,1018.61
2018-02-23T07:20:44.850Z,1018.61
2018-02-23T07:21:44.821Z,1018.61
2018-02-23T07:22:44.789Z,1018.63
2018-02-23T07:23:44.762Z,1018.59
2018-02-23T07:24:44.733Z,1018.63
2018-02-23T07:25:44.700Z,1018.65
2018-02-23T07:26:44.673Z,1018.65
2018-02-23T07:27:44.644Z,1018.59
2018-02-23T07:28:44.615Z,1018.60
2018-02-23T07:29:44.583Z,1018.63
2018-02-23T07:30:44.557Z,1018.64
2018-02-23T07:31:44.525Z,1018.65
2018-02-23T07:32:44.500Z,1018.63
2018-02-23T07:33:44.466Z,1018.66
2018-02-23T07:34:44.444Z,1018.66
2018-02-23T07:35:44.409Z,1018.63
2018-02-23T07:36:44.376Z,1018.66
2018-02-23T07:37:44.346Z,1018.64
2018-02-23T07:38:44.321Z,1018.68
2018-02-23T07:39:44.286Z,1018.64
2018-02-23T07:40:44.268Z,1018.69
2018-02-23T07:41:44.232Z,1018.70
2018-02-23T07:42:44.199Z,1018.66
2018-02-23T07:43:44.174Z,1018.65
2018-02-23T07:44:44.141Z,1018.70
2018-02-23T07:45:44.113Z,1018.69
2018-02-23T07:46:44.083Z,1018.71
2018-02-23T07:47:44.060Z,1018.70
2018-02-23T07:48:44.027Z,1018.67
2018-02-23T07:49:43.993Z,1018.71
2018-02-23T07:50:43.967Z,1018.73
2018-02-23T07:51:43.937Z,1018.69
2018-02-23T07:52:43.907Z,1018.72
2018-02-23T07:53:43.876Z,1018.72
2018-02-23T07:54:43.848Z,1018.73
2018-02-23T07:55:43.822Z,1018.75
2018-02-23T07:56:43.791Z,1018.73
2018-02-23T07:57:43.758Z,1018.75
2018-02-23T07:58:43.732Z,1018.82
2018-02-23T07:59:43.704Z,1018.72
2018-02-23T08:00:43.676Z,1018.72
2018-02-23T08:01:43.640Z,1018.72
2018-02-23T08:02:43.619Z,1018.82
2018-02-23T08:03:43.587Z,1018.79
2018-02-23T08:04:43.557Z,1018.76
2018-02-23T08:05:43.532Z,1018.71
2018-02-23T08:06:43.505Z,1018.75
2018-02-23T08:07:43.471Z,1018.73
2018-02-23T08:08:43.440Z,1018.77
2018-02-23T08:09:43.411Z,1018.84
2018-02-23T08:10:43.379Z,1018.79
2018-02-23T08:11:43.351Z,1018.73
2018-02-23T08:12:43.325Z,1018.77
2018-02-23T08:13:43.296Z,1018.79
2018-02-23T08:14:43.268Z,1018.85
2018-02-23T08:15:43.238Z,1018.84
2018-02-23T08:16:43.213Z,1018.87
2018-02-23T08:17:43.179Z,1018.88
2018-02-23T08:18:43.149Z,1018.88
2018-02-23T08:19:43.123Z,1018.92
2018-02-23T08:20:43.089Z,1018.91
2018-02-23T08:21:43.062Z,1018.88
2018-02-23T08:22:43.034Z,1018.95
2018-02-23T08:23:43.003Z,1018.95
2018-02-23T08:24:42.972Z,1018.83
2018-02-23T08:25:42.945Z,1018.88
2018-02-23T08:26:42.918Z,1018.89
2018-02-23T08:27:42.885Z,1018.93
2018-02-23T08:28:42.859Z,1018.90
2018-02-23T08:29:42.830Z,1019.00
2018-02-23T08:30:42.800Z,1018.88
2018-02-23T08:31:42.772Z,1018.96
2018-02-23T08:32:42.743Z,1018.99
2018-02-23T08:33:42.715Z,1018.92
2018-02-23T08:34:42.686Z,1018.98
2018-02-23T08:35:42.660Z,1018.97
2018-02-23T08:36:42.629Z,1019.05
2018-02-23T08:37:42.600Z,1018.97
2018-02-23T08:38:42.572Z,1018.98
2018-02-23T08:39:42.543Z,1018.99
2018-02-23T08:40:42.514Z,1019.04
2018-02-23T08:41:42.488Z,1019.06
2018-02-23T08:42:42.458Z,1019.11
2018-02-23T08:43:42.431Z,1019.08
2018-02-23T08:44:42.402Z,1019.10
2018-02-23T08:45:42.373Z,1019.08
2018-02-23T08:46:42.345Z,1019.06
2018-02-23T08:47:42.317Z,1019.02
2018-02-23T08:48:42.289Z,1019.08
2018-02-23T08:49:42.263Z,1019.02
2018-02-23T08:50:42.234Z,1019.03
2018-02-23T08:51:42.205Z,1019.06
2018-02-23T08:52:42.182Z,1019.09
2018-02-23T08:53:42.155Z,1019.08
2018-02-23T08:54:42.124Z,1019.11
2018-02-23T08:55:42.102Z,1019.09
2018-02-23T08:56:42.068Z,1019.08
2018-02-23T08:57:42.041Z,1019.12
2018-02-23T08:58:42.012Z,1019.12
2018-02-23T08:59:41.983Z,1019.19
2018-02-23T09:00:41.955Z,1019.17
2018-02-23T09:01:41.929Z,1019.17
2018-02-23T09:02:41.902Z,1019.17
2018-02-23T09:03:41.873Z,1019.22
2018-02-23T09:04:41.849Z,1019.22
2018-02-23T09:05:41.821Z,1019.19
2018-02-23T09:06:41.792Z,1019.15
2018-02-23T09:07:41.764Z,1019.18
2018-02-23T09:08:41.739Z,1019.19
2018-02-23T09:09:41.709Z,1019.20
2018-02-23T09:10:41.684Z,1019.20
2018-02-23T09:11:41.660Z,1019.20
2018-02-23T09:12:41.628Z,1019.16
2018-02-23T09:13:41.601Z,1019.20
2018-02-23T09:14:41.569Z,1019.24
2018-02-23T09:15:41.546Z,1019.18
2018-02-23T09:16:41.519Z,1019.17
2018-02-23T09:17:41.491Z,1019.13
2018-02-23T09:18:41.469Z,1019.20
2018-02-23T09:19:41.438Z,1019.19
2018-02-23T09:20:41.418Z,1019.17
2018-02-23T09:21:41.383Z,1019.19
2018-02-23T09:22:41.356Z,1019.24
2018-02-23T09:23:41.332Z,1019.20
2018-02-23T09:24:41.328Z,1019.18
2018-02-23T09:25:41.273Z,1019.12
2018-02-23T09:26:41.249Z,1019.13
2018-02-23T09:27:41.222Z,1019.20
2018-02-23T09:28:41.195Z,1019.18
2018-02-23T09:29:41.166Z,1019.24
2018-02-23T09:30:41.141Z,1019.22
2018-02-23T09:31:41.117Z,1019.23
2018-02-23T09:32:41.135Z,1019.18
2018-02-23T09:33:41.058Z,1019.21
2018-02-23T09:34:41.035Z,1019.18
2018-02-23T09:35:41.004Z,1019.34
2018-02-23T09:36:40.980Z,1019.46
2018-02-23T09:37:40.955Z,1019.47
2018-02-23T09:38:40.924Z,1019.42
2018-02-23T09:39:40.900Z,1019.44
2018-02-23T09:40:40.873Z,1019.51
2018-02-23T09:41:40.845Z,1019.41
2018-02-23T09:42:40.815Z,1019.46
2018-02-23T09:43:40.793Z,1019.38
2018-02-23T09:44:40.767Z,1019.43
2018-02-23T09:45:40.734Z,1019.47
2018-02-23T09:46:40.714Z,1019.45
2018-02-23T09:47:40.694Z,1019.47
2018-02-23T09:48:40.665Z,1019.45
2018-02-23T09:49:40.637Z,1019.44
2018-02-23T09:50:40.615Z,1019.48
2018-02-23T09:51:40.587Z,1019.51
2018-02-23T09:52:40.564Z,1019.38
2018-02-23T09:53:40.538Z,1019.41
2018-02-23T09:54:40.512Z,1019.45
2018-02-23T09:55:40.490Z,1019.36
2018-02-23T09:56:40.499Z,1019.37
2018-02-23T09:57:40.443Z,1019.34
2018-02-23T09:58:40.414Z,1019.43
2018-02-23T09:59:40.395Z,1019.41
2018-02-23T10:00:40.376Z,1019.42
2018-02-23T10:01:40.346Z,1019.46
2018-02-23T10:02:40.317Z,1019.43
2018-02-23T10:03:40.299Z,1019.50
2018-02-23T10:04:40.278Z,1019.43
2018-02-23T10:05:40.255Z,1019.49
2018-02-23T10:06:40.233Z,1019.47
2018-02-23T10:07:40.205Z,1019.51
2018-02-23T10:08:40.182Z,1019.52
2018-02-23T10:09:40.160Z,1019.45
2018-02-23T10:10:40.139Z,1019.52
2018-02-23T10:11:40.115Z,1019.54
2018-02-23T10:12:40.096Z,1019.49
2018-02-23T10:13:40.076Z,1019.48
2018-02-23T10:14:40.053Z,1019.54
2018-02-23T10:15:40.030Z,1019.53
2018-02-23T10:16:40.010Z,1019.65
2018-02-23T10:17:39.993Z,1019.60
2018-02-23T10:18:39.965Z,1019.54
2018-02-23T10:19:39.950Z,1019.58
2018-02-23T10:20:39.924Z,1019.64
2018-02-23T10:21:39.907Z,1019.60
2018-02-23T10:22:39.883Z,1019.60
2018-02-23T10:23:39.863Z,1019.63
2018-02-23T10:24:39.844Z,1019.68
2018-02-23T10:25:39.820Z,1019.69
2018-02-23T10:26:39.798Z,1019.75
2018-02-23T10:27:39.783Z,1019.76
2018-02-23T10:28:39.766Z,1019.70
2018-02-23T10:29:39.741Z,1019.68
2018-02-23T10:30:39.719Z,1019.69
2018-02-23T10:31:39.700Z,1019.74
2018-02-23T10:32:39.713Z,1019.69
2018-02-23T10:33:39.666Z,1019.68
2018-02-23T10:34:39.643Z,1019.61
2018-02-23T10:35:39.627Z,1019.64
2018-02-23T10:36:39.605Z,1019.67
2018-02-23T10:37:39.585Z,1019.71
2018-02-23T10:38:39.566Z,1019.64
2018-02-23T10:39:39.545Z,1019.56
2018-02-23T10:40:39.531Z,1019.47
2018-02-23T10:41:39.513Z,1019.55
2018-02-23T10:42:39.490Z,1019.47
2018-02-23T10:43:39.474Z,1019.46
2018-02-23T10:44:39.455Z,1019.46
2018-02-23T10:45:39.436Z,1019.50
2018-02-23T10:46:39.453Z,1019.50
2018-02-23T10:47:39.399Z,1019.50
2018-02-23T10:48:39.385Z,1019.52
2018-02-23T10:49:39.363Z,1019.49
2018-02-23T10:50:39.345Z,1019.37
2018-02-23T10:51:39.327Z,1019.43
2018-02-23T10:52:39.311Z,1019.39
2018-02-23T10:53:39.291Z,1019.36
2018-02-23T10:54:39.272Z,1019.35
2018-02-23T10:55:39.255Z,1019.32
2018-02-23T10:56:39.236Z,1019.28
2018-02-23T10:57:39.217Z,1019.19
2018-02-23T10:58:39.202Z,1019.16
2018-02-23T10:59:39.182Z,1019.10
2018-02-23T11:00:39.169Z,1019.10
2018-02-23T11:01:39.151Z,1019.15
2018-02-23T11:02:39.132Z,1019.19
2018-02-23T11:03:39.114Z,1019.14
2018-02-23T11:04:39.100Z,1019.15
2018-02-23T11:05:39.078Z,1019.15
2018-02-23T11:06:39.058Z,1019.15
2018-02-23T11:07:39.040Z,1019.33
2018-02-23T11:08:39.024Z,1019.21
2018-02-23T11:09:39.004Z,1019.20
2018-02-23T11:10:38.987Z,1019.10
2018-02-23T11:11:38.974Z,1019.12
2018-02-23T11:12:38.954Z,1019.04
2018-02-23T11:13:38.936Z,1019.15
2018-02-23T11:14:38.915Z,1019.08
2018-02-23T11:15:38.899Z,1019.04
2018-02-23T11:16:38.878Z,1019.10
2018-02-23T11:17:38.862Z,1019.12
2018-02-23T11:18:38.896Z,1019.07
2018-02-23T11:19:38.827Z,1019.06
2018-02-23T11:20:38.810Z,1019.05
2018-02-23T11:21:38.791Z,1019.09
2018-02-23T11:22:38.770Z,1019.08
2018-02-23T11:23:38.756Z,1019.03
2018-02-23T11:24:38.740Z,1019.04
2018-02-23T11:25:38.721Z,1019.06
2018-02-23T11:26:38.702Z,1019.01
2018-02-23T11:27:38.685Z,1019.04
2018-02-23T11:28:38.668Z,1018.93
2018-02-23T11:29:38.652Z,1018.98
2018-02-23T11:30:38.630Z,1018.97
2018-02-23T11:31:38.614Z,1018.97
2018-02-23T11:32:38.592Z,1019.01
2018-02-23T11:33:38.575Z,1019.02
2018-02-23T11:34:38.560Z,1019.04
2018-02-23T11:35:38.540Z,1019.04
2018-02-23T11:36:38.523Z,1019.08
2018-02-23T11:37:38.504Z,1019.02
2018-02-23T11:38:38.491Z,1019.00
2018-02-23T11:39:38.475Z,1018.96
2018-02-23T11:40:38.455Z,1018.92
2018-02-23T11:41:38.433Z,1018.88
2018-02-23T11:42:38.417Z,1018.95
2018-02-23T11:43:38.406Z,1018.97
2018-02-23T11:44:38.382Z,1018.98
2018-02-23T11:45:38.363Z,1018.95
2018-02-23T11:46:38.346Z,1018.95
2018-02-23T11:47:38.328Z,1018.92
2018-02-23T11:48:38.310Z,1018.90
2018-02-23T11:49:38.296Z,1018.87
2018-02-23T11:50:38.275Z,1018.91
2018-02-23T11:51:38.263Z,1018.90
2018-02-23T11:52:38.239Z,1018.88
2018-02-23T11:53:38.223Z,1018.88
2018-02-23T11:54:38.203Z,1018.94
2018-02-23T11:55:38.234Z,1018.87
2018-02-23T11:56:38.173Z,1018.87
2018-02-23T11:57:38.153Z,1018.86
2018-02-23T11:58:38.134Z,1018.89
2018-02-23T11:59:38.118Z,1018.81
2018-02-23T12:00:38.100Z,1018.74
2018-02-23T12:01:38.083Z,1018.79
2018-02-23T12:02:38.062Z,1018.76
2018-02-23T12:03:38.045Z,1018.77
2018-02-23T12:04:38.031Z,1018.71
2018-02-23T12:05:38.012Z,1018.79